sensor_id;sensor_type;location;lat;lon;timestamp;temperature;humidity
64843;DHT22;51310;52.198;5.422;2022-10-17T00:00:40;13.60;99.90
64843;DHT22;51310;52.198;5.422;2022-10-17T00:03:06;13.50;99.90
64843;DHT22;51310;52.198;5.422;2022-10-17T00:05:33;13.60;99.90
64843;DHT22;51310;52.198;5.422;2022-10-17T00:08:03;13.50;99.90
64843;DHT22;51310;52.198;5.422;2022-10-17T00:10:29;13.50;99.90
64843;DHT22;51310;52.198;5.422;2022-10-17T00:12:55;13.60;99.90
64843;DHT22;51310;52.198;5.422;2022-10-17T00:15:21;13.60;99.90
64843;DHT22;51310;52.198;5.422;2022-10-17T00:17:47;13.60;99.90
64843;DHT22;51310;52.198;5.422;2022-10-17T00:20:14;13.60;99.90
64843;DHT22;51310;52.198;5.422;2022-10-17T00:22:40;13.60;99.90
64843;DHT22;51310;52.198;5.422;2022-10-17T00:25:07;13.50;99.90
64843;DHT22;51310;52.198;5.422;2022-10-17T00:27:37;13.50;99.90
64843;DHT22;51310;52.198;5.422;2022-10-17T00:30:07;13.50;99.90
64843;DHT22;51310;52.198;5.422;2022-10-17T00:32:37;13.50;99.90
64843;DHT22;51310;52.198;5.422;2022-10-17T00:35:04;13.40;99.90
64843;DHT22;51310;52.198;5.422;2022-10-17T00:37:31;13.50;99.90
64843;DHT22;51310;52.198;5.422;2022-10-17T00:39:58;13.40;99.90
64843;DHT22;51310;52.198;5.422;2022-10-17T00:42:25;13.50;99.90
64843;DHT22;51310;52.198;5.422;2022-10-17T00:45:06;13.40;99.90
64843;DHT22;51310;52.198;5.422;2022-10-17T00:47:52;13.40;99.90
64843;DHT22;51310;52.198;5.422;2022-10-17T00:50:29;13.40;99.90
64843;DHT22;51310;52.198;5.422;2022-10-17T00:52:58;13.40;99.90
64843;DHT22;51310;52.198;5.422;2022-10-17T00:55:30;14.30;99.90
64843;DHT22;51310;52.198;5.422;2022-10-17T00:58:02;13.50;99.90
64843;DHT22;51310;52.198;5.422;2022-10-17T01:00:30;13.40;99.90
64843;DHT22;51310;52.198;5.422;2022-10-17T01:02:56;13.90;99.90
64843;DHT22;51310;52.198;5.422;2022-10-17T01:05:22;13.30;99.90
64843;DHT22;51310;52.198;5.422;2022-10-17T01:07:49;13.40;99.90
64843;DHT22;51310;52.198;5.422;2022-10-17T01:10:17;13.40;99.90
64843;DHT22;51310;52.198;5.422;2022-10-17T01:13:07;13.40;99.90
64843;DHT22;51310;52.198;5.422;2022-10-17T01:16:05;13.40;99.90
64843;DHT22;51310;52.198;5.422;2022-10-17T01:18:48;13.40;99.90
64843;DHT22;51310;52.198;5.422;2022-10-17T01:21:54;13.40;99.90
64843;DHT22;51310;52.198;5.422;2022-10-17T01:28:12;13.40;99.90
64843;DHT22;51310;52.198;5.422;2022-10-17T01:31:13;13.40;99.90
64843;DHT22;51310;52.198;5.422;2022-10-17T01:36:48;13.40;99.90
64843;DHT22;51310;52.198;5.422;2022-10-17T01:42:37;13.40;99.90
64843;DHT22;51310;52.198;5.422;2022-10-17T01:45:38;13.50;99.90
64843;DHT22;51310;52.198;5.422;2022-10-17T01:48:15;13.50;99.90
64843;DHT22;51310;52.198;5.422;2022-10-17T01:50:56;13.50;99.90
64843;DHT22;51310;52.198;5.422;2022-10-17T01:53:35;16.80;99.90
64843;DHT22;51310;52.198;5.422;2022-10-17T01:56:08;13.50;99.90
64843;DHT22;51310;52.198;5.422;2022-10-17T01:58:50;13.50;99.90
64843;DHT22;51310;52.198;5.422;2022-10-17T02:01:23;13.60;99.90
64843;DHT22;51310;52.198;5.422;2022-10-17T02:03:55;13.50;99.90
64843;DHT22;51310;52.198;5.422;2022-10-17T02:06:23;13.50;99.90
64843;DHT22;51310;52.198;5.422;2022-10-17T02:08:50;13.50;99.90
64843;DHT22;51310;52.198;5.422;2022-10-17T02:11:21;13.50;99.90
64843;DHT22;51310;52.198;5.422;2022-10-17T02:22:46;13.50;99.90
64843;DHT22;51310;52.198;5.422;2022-10-17T02:32:03;13.60;99.90
64843;DHT22;51310;52.198;5.422;2022-10-17T02:34:41;13.60;99.90
64843;DHT22;51310;52.198;5.422;2022-10-17T02:37:14;13.70;99.90
64843;DHT22;51310;52.198;5.422;2022-10-17T02:39:45;13.70;99.90
64843;DHT22;51310;52.198;5.422;2022-10-17T02:42:13;13.60;99.90
64843;DHT22;51310;52.198;5.422;2022-10-17T02:44:43;13.70;99.90
64843;DHT22;51310;52.198;5.422;2022-10-17T02:47:22;14.00;99.90
64843;DHT22;51310;52.198;5.422;2022-10-17T02:49:55;13.70;99.90
64843;DHT22;51310;52.198;5.422;2022-10-17T02:52:27;15.90;99.90
64843;DHT22;51310;52.198;5.422;2022-10-17T02:57:53;13.80;99.90
64843;DHT22;51310;52.198;5.422;2022-10-17T03:00:25;13.90;99.90
64843;DHT22;51310;52.198;5.422;2022-10-17T03:02:53;13.90;99.90
64843;DHT22;51310;52.198;5.422;2022-10-17T03:05:21;13.90;99.90
64843;DHT22;51310;52.198;5.422;2022-10-17T03:07:52;13.90;99.90
64843;DHT22;51310;52.198;5.422;2022-10-17T03:10:19;15.70;99.90
64843;DHT22;51310;52.198;5.422;2022-10-17T03:12:46;16.00;99.90
64843;DHT22;51310;52.198;5.422;2022-10-17T03:15:12;16.40;99.90
64843;DHT22;51310;52.198;5.422;2022-10-17T03:17:39;14.70;99.90
64843;DHT22;51310;52.198;5.422;2022-10-17T03:20:05;14.10;99.90
64843;DHT22;51310;52.198;5.422;2022-10-17T03:22:32;14.20;99.90
64843;DHT22;51310;52.198;5.422;2022-10-17T03:24:58;14.20;99.90
64843;DHT22;51310;52.198;5.422;2022-10-17T03:27:24;14.20;99.90
64843;DHT22;51310;52.198;5.422;2022-10-17T03:29:50;14.30;99.90
64843;DHT22;51310;52.198;5.422;2022-10-17T03:32:16;14.10;99.90
64843;DHT22;51310;52.198;5.422;2022-10-17T03:34:42;14.30;99.90
64843;DHT22;51310;52.198;5.422;2022-10-17T03:37:08;14.30;99.90
64843;DHT22;51310;52.198;5.422;2022-10-17T03:39:33;14.30;99.90
64843;DHT22;51310;52.198;5.422;2022-10-17T03:41:59;14.30;99.90
64843;DHT22;51310;52.198;5.422;2022-10-17T03:44:25;14.40;99.90
64843;DHT22;51310;52.198;5.422;2022-10-17T03:46:51;16.50;99.90
64843;DHT22;51310;52.198;5.422;2022-10-17T03:49:17;14.60;99.90
64843;DHT22;51310;52.198;5.422;2022-10-17T03:51:43;14.50;99.90
64843;DHT22;51310;52.198;5.422;2022-10-17T03:54:09;14.50;99.90
64843;DHT22;51310;52.198;5.422;2022-10-17T03:56:34;14.60;99.90
64843;DHT22;51310;52.198;5.422;2022-10-17T03:59:00;15.00;99.90
64843;DHT22;51310;52.198;5.422;2022-10-17T04:01:26;14.60;99.90
64843;DHT22;51310;52.198;5.422;2022-10-17T04:03:53;14.80;99.90
64843;DHT22;51310;52.198;5.422;2022-10-17T04:06:21;14.60;99.90
64843;DHT22;51310;52.198;5.422;2022-10-17T04:08:47;14.60;99.90
64843;DHT22;51310;52.198;5.422;2022-10-17T04:11:16;15.50;99.90
64843;DHT22;51310;52.198;5.422;2022-10-17T04:13:44;14.70;99.90
64843;DHT22;51310;52.198;5.422;2022-10-17T04:16:15;14.70;99.90
64843;DHT22;51310;52.198;5.422;2022-10-17T04:18:42;14.70;99.90
64843;DHT22;51310;52.198;5.422;2022-10-17T04:21:09;14.70;99.90
64843;DHT22;51310;52.198;5.422;2022-10-17T04:23:36;14.80;99.90
64843;DHT22;51310;52.198;5.422;2022-10-17T04:26:03;17.00;99.90
64843;DHT22;51310;52.198;5.422;2022-10-17T04:28:31;14.80;99.90
64843;DHT22;51310;52.198;5.422;2022-10-17T04:31:03;14.80;99.90
64843;DHT22;51310;52.198;5.422;2022-10-17T04:33:36;14.80;99.90
64843;DHT22;51310;52.198;5.422;2022-10-17T04:36:05;14.80;99.90
64843;DHT22;51310;52.198;5.422;2022-10-17T04:38:51;14.80;99.90
64843;DHT22;51310;52.198;5.422;2022-10-17T04:41:18;14.80;99.90
64843;DHT22;51310;52.198;5.422;2022-10-17T04:43:44;14.80;99.90
64843;DHT22;51310;52.198;5.422;2022-10-17T04:46:12;14.80;99.90
64843;DHT22;51310;52.198;5.422;2022-10-17T04:48:40;14.80;99.90
64843;DHT22;51310;52.198;5.422;2022-10-17T04:51:10;14.80;99.90
64843;DHT22;51310;52.198;5.422;2022-10-17T04:53:39;17.10;99.90
64843;DHT22;51310;52.198;5.422;2022-10-17T04:56:12;14.80;99.90
64843;DHT22;51310;52.198;5.422;2022-10-17T04:58:42;14.80;99.90
64843;DHT22;51310;52.198;5.422;2022-10-17T05:01:17;14.80;99.90
64843;DHT22;51310;52.198;5.422;2022-10-17T05:03:46;14.80;99.90
64843;DHT22;51310;52.198;5.422;2022-10-17T05:06:15;14.90;99.90
64843;DHT22;51310;52.198;5.422;2022-10-17T05:08:47;15.00;99.90
64843;DHT22;51310;52.198;5.422;2022-10-17T05:11:25;14.90;99.90
64843;DHT22;51310;52.198;5.422;2022-10-17T05:13:55;15.40;99.90
64843;DHT22;51310;52.198;5.422;2022-10-17T05:16:24;15.60;99.90
64843;DHT22;51310;52.198;5.422;2022-10-17T05:18:53;15.00;99.90
64843;DHT22;51310;52.198;5.422;2022-10-17T05:21:22;14.90;99.90
64843;DHT22;51310;52.198;5.422;2022-10-17T05:23:50;14.90;99.90
64843;DHT22;51310;52.198;5.422;2022-10-17T05:26:16;14.90;99.90
64843;DHT22;51310;52.198;5.422;2022-10-17T05:28:43;14.90;99.90
64843;DHT22;51310;52.198;5.422;2022-10-17T05:31:10;15.00;99.90
64843;DHT22;51310;52.198;5.422;2022-10-17T05:33:37;16.00;99.90
64843;DHT22;51310;52.198;5.422;2022-10-17T05:36:05;15.00;99.90
64843;DHT22;51310;52.198;5.422;2022-10-17T05:38:32;15.00;99.90
64843;DHT22;51310;52.198;5.422;2022-10-17T05:40:59;15.00;99.90
64843;DHT22;51310;52.198;5.422;2022-10-17T05:43:27;15.10;99.90
64843;DHT22;51310;52.198;5.422;2022-10-17T05:45:54;15.00;99.90
64843;DHT22;51310;52.198;5.422;2022-10-17T05:48:21;15.10;99.90
64843;DHT22;51310;52.198;5.422;2022-10-17T05:50:47;15.10;99.90
64843;DHT22;51310;52.198;5.422;2022-10-17T05:53:14;15.10;99.90
64843;DHT22;51310;52.198;5.422;2022-10-17T05:55:41;15.00;99.90
64843;DHT22;51310;52.198;5.422;2022-10-17T05:58:06;15.10;99.90
64843;DHT22;51310;52.198;5.422;2022-10-17T06:00:32;15.10;99.90
64843;DHT22;51310;52.198;5.422;2022-10-17T06:02:58;15.20;99.90
64843;DHT22;51310;52.198;5.422;2022-10-17T06:05:24;15.20;99.90
64843;DHT22;51310;52.198;5.422;2022-10-17T06:07:50;15.20;99.90
64843;DHT22;51310;52.198;5.422;2022-10-17T06:10:17;16.30;99.90
64843;DHT22;51310;52.198;5.422;2022-10-17T06:12:44;15.30;99.90
64843;DHT22;51310;52.198;5.422;2022-10-17T06:15:11;16.70;99.90
64843;DHT22;51310;52.198;5.422;2022-10-17T06:17:37;15.30;99.90
64843;DHT22;51310;52.198;5.422;2022-10-17T06:20:04;15.10;99.90
64843;DHT22;51310;52.198;5.422;2022-10-17T06:22:30;15.30;99.90
64843;DHT22;51310;52.198;5.422;2022-10-17T06:24:56;15.30;99.90
64843;DHT22;51310;52.198;5.422;2022-10-17T06:27:22;15.30;99.90
64843;DHT22;51310;52.198;5.422;2022-10-17T06:29:48;16.10;99.90
64843;DHT22;51310;52.198;5.422;2022-10-17T06:32:15;17.60;99.90
64843;DHT22;51310;52.198;5.422;2022-10-17T06:34:41;15.30;99.90
64843;DHT22;51310;52.198;5.422;2022-10-17T06:37:07;15.30;99.90
64843;DHT22;51310;52.198;5.422;2022-10-17T06:39:34;15.30;99.90
64843;DHT22;51310;52.198;5.422;2022-10-17T06:42:01;15.40;99.90
64843;DHT22;51310;52.198;5.422;2022-10-17T06:44:28;15.40;99.90
64843;DHT22;51310;52.198;5.422;2022-10-17T06:46:57;15.40;99.90
64843;DHT22;51310;52.198;5.422;2022-10-17T06:49:24;15.40;99.90
64843;DHT22;51310;52.198;5.422;2022-10-17T06:51:50;15.50;99.90
64843;DHT22;51310;52.198;5.422;2022-10-17T06:54:16;15.50;99.90
64843;DHT22;51310;52.198;5.422;2022-10-17T06:56:42;15.50;99.90
64843;DHT22;51310;52.198;5.422;2022-10-17T06:59:09;15.50;99.90
64843;DHT22;51310;52.198;5.422;2022-10-17T07:01:35;15.60;99.90
64843;DHT22;51310;52.198;5.422;2022-10-17T07:04:01;16.50;99.90
64843;DHT22;51310;52.198;5.422;2022-10-17T07:06:27;15.70;99.90
64843;DHT22;51310;52.198;5.422;2022-10-17T07:08:52;15.60;99.90
64843;DHT22;51310;52.198;5.422;2022-10-17T07:11:21;16.60;99.90
64843;DHT22;51310;52.198;5.422;2022-10-17T07:13:48;16.80;99.90
64843;DHT22;51310;52.198;5.422;2022-10-17T07:16:15;15.60;99.90
64843;DHT22;51310;52.198;5.422;2022-10-17T07:18:42;15.60;99.90
64843;DHT22;51310;52.198;5.422;2022-10-17T07:21:08;15.70;99.90
64843;DHT22;51310;52.198;5.422;2022-10-17T07:23:37;15.70;99.90
64843;DHT22;51310;52.198;5.422;2022-10-17T07:26:07;15.70;99.90
64843;DHT22;51310;52.198;5.422;2022-10-17T07:28:40;15.70;99.90
64843;DHT22;51310;52.198;5.422;2022-10-17T07:31:14;15.80;99.90
64843;DHT22;51310;52.198;5.422;2022-10-17T07:33:42;15.80;99.90
64843;DHT22;51310;52.198;5.422;2022-10-17T07:36:09;15.80;99.90
64843;DHT22;51310;52.198;5.422;2022-10-17T07:38:36;15.80;99.90
64843;DHT22;51310;52.198;5.422;2022-10-17T07:41:05;15.90;99.90
64843;DHT22;51310;52.198;5.422;2022-10-17T07:43:33;15.90;99.90
64843;DHT22;51310;52.198;5.422;2022-10-17T07:46:01;15.90;99.90
64843;DHT22;51310;52.198;5.422;2022-10-17T07:48:29;15.80;99.90
64843;DHT22;51310;52.198;5.422;2022-10-17T07:50:55;15.90;99.90
64843;DHT22;51310;52.198;5.422;2022-10-17T07:53:21;15.80;99.90
64843;DHT22;51310;52.198;5.422;2022-10-17T07:55:47;15.80;99.90
64843;DHT22;51310;52.198;5.422;2022-10-17T07:58:14;15.80;99.90
64843;DHT22;51310;52.198;5.422;2022-10-17T08:00:40;15.90;99.90
64843;DHT22;51310;52.198;5.422;2022-10-17T08:03:06;15.80;99.90
64843;DHT22;51310;52.198;5.422;2022-10-17T08:05:33;15.90;99.90
64843;DHT22;51310;52.198;5.422;2022-10-17T08:07:59;15.90;99.90
64843;DHT22;51310;52.198;5.422;2022-10-17T08:10:25;17.70;99.90
64843;DHT22;51310;52.198;5.422;2022-10-17T08:12:53;15.90;99.90
64843;DHT22;51310;52.198;5.422;2022-10-17T08:15:20;15.80;99.90
64843;DHT22;51310;52.198;5.422;2022-10-17T08:17:47;15.90;99.90
64843;DHT22;51310;52.198;5.422;2022-10-17T08:20:13;16.00;99.90
64843;DHT22;51310;52.198;5.422;2022-10-17T08:22:39;15.90;99.90
64843;DHT22;51310;52.198;5.422;2022-10-17T08:25:05;17.40;99.90
64843;DHT22;51310;52.198;5.422;2022-10-17T08:27:33;16.20;99.90
64843;DHT22;51310;52.198;5.422;2022-10-17T08:29:59;16.20;99.90
64843;DHT22;51310;52.198;5.422;2022-10-17T08:32:26;17.70;99.90
64843;DHT22;51310;52.198;5.422;2022-10-17T08:34:55;16.30;99.90
64843;DHT22;51310;52.198;5.422;2022-10-17T08:37:22;16.30;99.90
64843;DHT22;51310;52.198;5.422;2022-10-17T08:39:48;16.40;99.90
64843;DHT22;51310;52.198;5.422;2022-10-17T08:42:42;16.20;99.90
64843;DHT22;51310;52.198;5.422;2022-10-17T08:45:35;16.20;99.90
64843;DHT22;51310;52.198;5.422;2022-10-17T08:48:16;16.20;99.90
64843;DHT22;51310;52.198;5.422;2022-10-17T08:53:51;16.30;99.90
64843;DHT22;51310;52.198;5.422;2022-10-17T08:56:33;16.20;99.90
64843;DHT22;51310;52.198;5.422;2022-10-17T08:59:27;16.30;99.90
64843;DHT22;51310;52.198;5.422;2022-10-17T09:02:13;16.20;99.90
64843;DHT22;51310;52.198;5.422;2022-10-17T09:11:55;16.20;99.90
64843;DHT22;51310;52.198;5.422;2022-10-17T09:15:02;16.20;99.90
64843;DHT22;51310;52.198;5.422;2022-10-17T09:20:25;16.30;99.90
64843;DHT22;51310;52.198;5.422;2022-10-17T09:23:09;16.30;99.90
64843;DHT22;51310;52.198;5.422;2022-10-17T09:25:44;16.40;99.90
64843;DHT22;51310;52.198;5.422;2022-10-17T09:28:21;16.40;99.90
64843;DHT22;51310;52.198;5.422;2022-10-17T09:31:04;16.40;99.90
64843;DHT22;51310;52.198;5.422;2022-10-17T09:33:50;16.40;99.90
64843;DHT22;51310;52.198;5.422;2022-10-17T09:36:22;16.40;99.90
64843;DHT22;51310;52.198;5.422;2022-10-17T09:39:02;16.40;99.90
64843;DHT22;51310;52.198;5.422;2022-10-17T09:41:34;16.40;99.90
64843;DHT22;51310;52.198;5.422;2022-10-17T09:44:14;16.40;99.90
64843;DHT22;51310;52.198;5.422;2022-10-17T09:47:16;17.10;99.90
64843;DHT22;51310;52.198;5.422;2022-10-17T09:49:49;16.40;99.90
64843;DHT22;51310;52.198;5.422;2022-10-17T09:52:43;16.30;99.90
64843;DHT22;51310;52.198;5.422;2022-10-17T09:55:20;16.30;99.90
64843;DHT22;51310;52.198;5.422;2022-10-17T09:57:59;16.40;99.90
64843;DHT22;51310;52.198;5.422;2022-10-17T10:00:46;16.40;99.90
64843;DHT22;51310;52.198;5.422;2022-10-17T10:06:16;16.50;99.90
64843;DHT22;51310;52.198;5.422;2022-10-17T10:08:52;16.60;99.90
64843;DHT22;51310;52.198;5.422;2022-10-17T10:11:48;16.60;99.90
64843;DHT22;51310;52.198;5.422;2022-10-17T10:14:29;16.60;99.90
64843;DHT22;51310;52.198;5.422;2022-10-17T10:16:58;16.60;99.90
64843;DHT22;51310;52.198;5.422;2022-10-17T10:19:36;17.30;99.90
64843;DHT22;51310;52.198;5.422;2022-10-17T10:22:17;16.80;99.90
64843;DHT22;51310;52.198;5.422;2022-10-17T10:25:06;16.80;99.90
64843;DHT22;51310;52.198;5.422;2022-10-17T10:27:35;16.70;99.90
64843;DHT22;51310;52.198;5.422;2022-10-17T10:30:05;16.60;99.90
64843;DHT22;51310;52.198;5.422;2022-10-17T10:32:34;16.60;99.90
64843;DHT22;51310;52.198;5.422;2022-10-17T10:35:05;16.60;99.90
64843;DHT22;51310;52.198;5.422;2022-10-17T10:37:46;16.60;99.90
64843;DHT22;51310;52.198;5.422;2022-10-17T10:40:50;16.60;99.90
64843;DHT22;51310;52.198;5.422;2022-10-17T10:46:26;16.60;99.90
64843;DHT22;51310;52.198;5.422;2022-10-17T10:48:58;16.70;99.90
64843;DHT22;51310;52.198;5.422;2022-10-17T10:51:39;16.70;99.90
64843;DHT22;51310;52.198;5.422;2022-10-17T10:54:22;16.60;99.90
64843;DHT22;51310;52.198;5.422;2022-10-17T10:56:58;17.60;99.90
64843;DHT22;51310;52.198;5.422;2022-10-17T11:02:25;16.90;99.90
64843;DHT22;51310;52.198;5.422;2022-10-17T11:05:05;17.00;99.90
64843;DHT22;51310;52.198;5.422;2022-10-17T11:07:57;17.00;99.90
64843;DHT22;51310;52.198;5.422;2022-10-17T11:13:52;17.10;99.90
64843;DHT22;51310;52.198;5.422;2022-10-17T11:16:38;16.50;99.90
64843;DHT22;51310;52.198;5.422;2022-10-17T11:19:47;17.00;99.90
64843;DHT22;51310;52.198;5.422;2022-10-17T11:22:39;17.10;99.90
64843;DHT22;51310;52.198;5.422;2022-10-17T11:25:33;17.10;99.90
64843;DHT22;51310;52.198;5.422;2022-10-17T11:28:07;17.10;99.90
64843;DHT22;51310;52.198;5.422;2022-10-17T11:30:49;17.20;99.90
64843;DHT22;51310;52.198;5.422;2022-10-17T11:33:43;17.10;99.90
64843;DHT22;51310;52.198;5.422;2022-10-17T11:36:16;17.20;99.90
64843;DHT22;51310;52.198;5.422;2022-10-17T11:39:10;17.20;99.90
64843;DHT22;51310;52.198;5.422;2022-10-17T11:42:02;17.20;99.90
64843;DHT22;51310;52.198;5.422;2022-10-17T11:44:35;19.50;99.90
64843;DHT22;51310;52.198;5.422;2022-10-17T11:53:15;17.10;99.90
64843;DHT22;51310;52.198;5.422;2022-10-17T11:55:44;17.90;99.90
64843;DHT22;51310;52.198;5.422;2022-10-17T12:07:22;17.00;99.90
64843;DHT22;51310;52.198;5.422;2022-10-17T12:10:32;17.00;99.90
64843;DHT22;51310;52.198;5.422;2022-10-17T12:15:54;17.20;99.90
64843;DHT22;51310;52.198;5.422;2022-10-17T12:18:43;17.40;99.90
64843;DHT22;51310;52.198;5.422;2022-10-17T12:21:09;19.30;99.90
64843;DHT22;51310;52.198;5.422;2022-10-17T12:23:35;17.40;99.90
64843;DHT22;51310;52.198;5.422;2022-10-17T12:26:06;17.40;99.90
64843;DHT22;51310;52.198;5.422;2022-10-17T12:31:04;17.40;99.90
64843;DHT22;51310;52.198;5.422;2022-10-17T12:33:54;17.30;99.90
64843;DHT22;51310;52.198;5.422;2022-10-17T12:49:45;16.90;99.90
64843;DHT22;51310;52.198;5.422;2022-10-17T12:58:01;16.90;99.90
64843;DHT22;51310;52.198;5.422;2022-10-17T13:00:51;16.80;99.90
64843;DHT22;51310;52.198;5.422;2022-10-17T13:03:21;16.90;99.90
64843;DHT22;51310;52.198;5.422;2022-10-17T13:05:55;17.40;99.90
64843;DHT22;51310;52.198;5.422;2022-10-17T13:08:29;16.70;99.90
64843;DHT22;51310;52.198;5.422;2022-10-17T13:11:00;16.60;99.90
64843;DHT22;51310;52.198;5.422;2022-10-17T13:13:46;16.60;99.90
64843;DHT22;51310;52.198;5.422;2022-10-17T13:16:30;16.50;99.90
64843;DHT22;51310;52.198;5.422;2022-10-17T13:19:02;16.70;99.90
64843;DHT22;51310;52.198;5.422;2022-10-17T13:21:53;16.40;99.90
64843;DHT22;51310;52.198;5.422;2022-10-17T13:24:34;16.40;99.90
64843;DHT22;51310;52.198;5.422;2022-10-17T13:27:04;16.30;99.90
64843;DHT22;51310;52.198;5.422;2022-10-17T13:29:45;16.40;99.90
64843;DHT22;51310;52.198;5.422;2022-10-17T13:32:11;16.40;99.90
64843;DHT22;51310;52.198;5.422;2022-10-17T13:34:37;16.40;99.90
64843;DHT22;51310;52.198;5.422;2022-10-17T13:37:06;18.70;99.90
64843;DHT22;51310;52.198;5.422;2022-10-17T13:39:44;18.50;99.90
64843;DHT22;51310;52.198;5.422;2022-10-17T13:42:27;16.60;99.90
64843;DHT22;51310;52.198;5.422;2022-10-17T13:45:04;16.70;99.90
64843;DHT22;51310;52.198;5.422;2022-10-17T13:47:50;16.70;99.90
64843;DHT22;51310;52.198;5.422;2022-10-17T13:50:30;17.50;99.90
64843;DHT22;51310;52.198;5.422;2022-10-17T13:53:19;16.80;99.90
64843;DHT22;51310;52.198;5.422;2022-10-17T13:58:49;16.90;99.90
64843;DHT22;51310;52.198;5.422;2022-10-17T14:01:20;16.90;99.90
64843;DHT22;51310;52.198;5.422;2022-10-17T14:03:48;16.90;99.90
64843;DHT22;51310;52.198;5.422;2022-10-17T14:06:25;16.90;99.90
64843;DHT22;51310;52.198;5.422;2022-10-17T14:11:42;17.00;99.90
64843;DHT22;51310;52.198;5.422;2022-10-17T14:14:22;17.00;99.90
64843;DHT22;51310;52.198;5.422;2022-10-17T14:16:51;17.50;99.90
64843;DHT22;51310;52.198;5.422;2022-10-17T14:19:24;17.10;99.90
64843;DHT22;51310;52.198;5.422;2022-10-17T14:22:17;17.10;99.90
64843;DHT22;51310;52.198;5.422;2022-10-17T14:24:47;17.10;99.90
64843;DHT22;51310;52.198;5.422;2022-10-17T14:32:54;17.20;99.90
64843;DHT22;51310;52.198;5.422;2022-10-17T14:35:23;17.20;99.90
64843;DHT22;51310;52.198;5.422;2022-10-17T14:37:51;17.30;99.90
64843;DHT22;51310;52.198;5.422;2022-10-17T14:40:24;19.00;99.90
64843;DHT22;51310;52.198;5.422;2022-10-17T14:42:57;17.40;99.90
64843;DHT22;51310;52.198;5.422;2022-10-17T14:45:33;17.50;99.90
64843;DHT22;51310;52.198;5.422;2022-10-17T14:48:11;17.60;99.90
64843;DHT22;51310;52.198;5.422;2022-10-17T14:50:41;17.60;99.90
64843;DHT22;51310;52.198;5.422;2022-10-17T14:56:54;17.40;99.90
64843;DHT22;51310;52.198;5.422;2022-10-17T14:59:20;17.40;99.90
64843;DHT22;51310;52.198;5.422;2022-10-17T15:01:50;17.40;99.90
64843;DHT22;51310;52.198;5.422;2022-10-17T15:04:17;18.40;99.90
64843;DHT22;51310;52.198;5.422;2022-10-17T15:06:43;17.30;99.90
64843;DHT22;51310;52.198;5.422;2022-10-17T15:09:12;17.20;99.90
64843;DHT22;51310;52.198;5.422;2022-10-17T15:11:38;17.20;99.90
64843;DHT22;51310;52.198;5.422;2022-10-17T15:14:04;17.10;99.90
64843;DHT22;51310;52.198;5.422;2022-10-17T15:16:31;17.10;99.90
64843;DHT22;51310;52.198;5.422;2022-10-17T15:18:59;17.10;99.90
64843;DHT22;51310;52.198;5.422;2022-10-17T15:21:27;17.10;99.90
64843;DHT22;51310;52.198;5.422;2022-10-17T15:23:53;17.10;99.90
64843;DHT22;51310;52.198;5.422;2022-10-17T15:26:25;17.10;99.90
64843;DHT22;51310;52.198;5.422;2022-10-17T15:28:55;17.10;99.90
64843;DHT22;51310;52.198;5.422;2022-10-17T15:31:22;17.10;99.90
64843;DHT22;51310;52.198;5.422;2022-10-17T15:33:50;17.10;99.90
64843;DHT22;51310;52.198;5.422;2022-10-17T15:39:03;17.00;99.90
64843;DHT22;51310;52.198;5.422;2022-10-17T15:41:30;17.00;99.90
64843;DHT22;51310;52.198;5.422;2022-10-17T15:43:57;17.00;99.90
64843;DHT22;51310;52.198;5.422;2022-10-17T15:46:26;17.10;99.90
64843;DHT22;51310;52.198;5.422;2022-10-17T15:48:56;17.00;99.90
64843;DHT22;51310;52.198;5.422;2022-10-17T15:51:32;17.00;99.90
64843;DHT22;51310;52.198;5.422;2022-10-17T15:53:58;18.60;99.90
64843;DHT22;51310;52.198;5.422;2022-10-17T15:56:37;16.80;99.90
64843;DHT22;51310;52.198;5.422;2022-10-17T15:59:14;16.80;99.90
64843;DHT22;51310;52.198;5.422;2022-10-17T16:01:43;18.90;99.90
64843;DHT22;51310;52.198;5.422;2022-10-17T16:04:13;16.70;99.90
64843;DHT22;51310;52.198;5.422;2022-10-17T16:06:41;16.60;99.90
64843;DHT22;51310;52.198;5.422;2022-10-17T16:09:07;16.60;99.90
64843;DHT22;51310;52.198;5.422;2022-10-17T16:11:36;16.60;99.90
64843;DHT22;51310;52.198;5.422;2022-10-17T16:14:10;16.60;99.90
64843;DHT22;51310;52.198;5.422;2022-10-17T16:16:39;16.50;99.90
64843;DHT22;51310;52.198;5.422;2022-10-17T16:19:05;16.50;99.90
64843;DHT22;51310;52.198;5.422;2022-10-17T16:21:34;16.50;99.90
64843;DHT22;51310;52.198;5.422;2022-10-17T16:24:03;18.10;99.90
64843;DHT22;51310;52.198;5.422;2022-10-17T16:26:30;16.40;99.90
64843;DHT22;51310;52.198;5.422;2022-10-17T16:28:56;16.40;99.90
64843;DHT22;51310;52.198;5.422;2022-10-17T16:31:30;16.30;99.90
64843;DHT22;51310;52.198;5.422;2022-10-17T16:34:00;16.30;99.90
64843;DHT22;51310;52.198;5.422;2022-10-17T16:36:28;18.50;99.90
64843;DHT22;51310;52.198;5.422;2022-10-17T16:38:54;16.20;99.90
64843;DHT22;51310;52.198;5.422;2022-10-17T16:41:25;16.20;99.90
64843;DHT22;51310;52.198;5.422;2022-10-17T16:44:02;16.20;99.90
64843;DHT22;51310;52.198;5.422;2022-10-17T16:46:32;16.10;99.90
64843;DHT22;51310;52.198;5.422;2022-10-17T16:49:03;16.10;99.90
64843;DHT22;51310;52.198;5.422;2022-10-17T16:51:30;17.00;99.90
64843;DHT22;51310;52.198;5.422;2022-10-17T16:53:58;16.10;99.90
64843;DHT22;51310;52.198;5.422;2022-10-17T16:56:25;16.00;99.90
64843;DHT22;51310;52.198;5.422;2022-10-17T16:58:57;16.20;99.90
64843;DHT22;51310;52.198;5.422;2022-10-17T17:01:25;16.00;99.90
64843;DHT22;51310;52.198;5.422;2022-10-17T17:03:54;15.90;99.90
64843;DHT22;51310;52.198;5.422;2022-10-17T17:06:28;15.90;99.90
64843;DHT22;51310;52.198;5.422;2022-10-17T17:08:55;15.90;99.90
64843;DHT22;51310;52.198;5.422;2022-10-17T17:11:23;15.90;99.90
64843;DHT22;51310;52.198;5.422;2022-10-17T17:13:51;15.90;99.90
64843;DHT22;51310;52.198;5.422;2022-10-17T17:16:21;15.90;99.90
64843;DHT22;51310;52.198;5.422;2022-10-17T17:18:58;15.90;99.90
64843;DHT22;51310;52.198;5.422;2022-10-17T17:21:31;17.60;99.90
64843;DHT22;51310;52.198;5.422;2022-10-17T17:24:00;15.80;99.90
64843;DHT22;51310;52.198;5.422;2022-10-17T17:26:29;15.80;99.90
64843;DHT22;51310;52.198;5.422;2022-10-17T17:28:59;15.90;99.90
64843;DHT22;51310;52.198;5.422;2022-10-17T17:31:26;16.00;99.90
64843;DHT22;51310;52.198;5.422;2022-10-17T17:33:56;15.90;99.90
64843;DHT22;51310;52.198;5.422;2022-10-17T17:36:25;16.40;99.90
64843;DHT22;51310;52.198;5.422;2022-10-17T17:38:56;15.80;99.90
64843;DHT22;51310;52.198;5.422;2022-10-17T17:41:25;15.80;99.90
64843;DHT22;51310;52.198;5.422;2022-10-17T17:43:52;15.80;99.90
64843;DHT22;51310;52.198;5.422;2022-10-17T17:46:19;16.10;99.90
64843;DHT22;51310;52.198;5.422;2022-10-17T17:48:52;15.70;99.90
64843;DHT22;51310;52.198;5.422;2022-10-17T17:51:37;15.60;99.90